sensor_id;sensor_type;location;lat;lon;timestamp;temperature;humidity
24678;DHT22;12800;53.094;8.778;2023-07-20T00:02:23;17.70;77.10
24678;DHT22;12800;53.094;8.778;2023-07-20T00:04:49;17.70;77.00
24678;DHT22;12800;53.094;8.778;2023-07-20T00:07:15;17.70;76.70
24678;DHT22;12800;53.094;8.778;2023-07-20T00:09:40;17.70;76.70
24678;DHT22;12800;53.094;8.778;2023-07-20T00:12:06;17.80;76.80
24678;DHT22;12800;53.094;8.778;2023-07-20T00:14:32;17.80;76.70
24678;DHT22;12800;53.094;8.778;2023-07-20T00:16:58;17.80;76.70
24678;DHT22;12800;53.094;8.778;2023-07-20T00:19:25;17.80;76.70
24678;DHT22;12800;53.094;8.778;2023-07-20T00:21:51;17.80;77.40
24678;DHT22;12800;53.094;8.778;2023-07-20T00:24:17;17.80;76.60
24678;DHT22;12800;53.094;8.778;2023-07-20T00:26:43;17.80;76.60
24678;DHT22;12800;53.094;8.778;2023-07-20T00:29:09;17.80;76.50
24678;DHT22;12800;53.094;8.778;2023-07-20T00:31:35;17.70;76.50
24678;DHT22;12800;53.094;8.778;2023-07-20T00:34:03;17.70;76.50
24678;DHT22;12800;53.094;8.778;2023-07-20T00:36:28;17.70;76.50
24678;DHT22;12800;53.094;8.778;2023-07-20T00:38:54;17.70;76.70
24678;DHT22;12800;53.094;8.778;2023-07-20T00:41:20;17.70;76.30
24678;DHT22;12800;53.094;8.778;2023-07-20T00:43:45;17.70;76.40
24678;DHT22;12800;53.094;8.778;2023-07-20T00:46:11;17.60;76.70
24678;DHT22;12800;53.094;8.778;2023-07-20T00:48:37;17.50;77.10
24678;DHT22;12800;53.094;8.778;2023-07-20T00:51:04;17.50;78.50
24678;DHT22;12800;53.094;8.778;2023-07-20T00:53:29;17.40;78.10
24678;DHT22;12800;53.094;8.778;2023-07-20T00:55:55;17.30;78.70
24678;DHT22;12800;53.094;8.778;2023-07-20T00:58:22;17.30;79.30
24678;DHT22;12800;53.094;8.778;2023-07-20T01:00:47;17.20;79.80
24678;DHT22;12800;53.094;8.778;2023-07-20T01:03:13;17.10;80.40
24678;DHT22;12800;53.094;8.778;2023-07-20T01:05:46;17.10;81.10
24678;DHT22;12800;53.094;8.778;2023-07-20T01:08:24;17.10;81.30
24678;DHT22;12800;53.094;8.778;2023-07-20T01:11:11;17.10;81.60
24678;DHT22;12800;53.094;8.778;2023-07-20T01:13:38;17.10;82.70
24678;DHT22;12800;53.094;8.778;2023-07-20T01:16:04;17.10;81.90
24678;DHT22;12800;53.094;8.778;2023-07-20T01:18:30;17.10;82.30
24678;DHT22;12800;53.094;8.778;2023-07-20T01:21:01;17.10;82.40
24678;DHT22;12800;53.094;8.778;2023-07-20T01:31:56;17.10;83.10
24678;DHT22;12800;53.094;8.778;2023-07-20T01:34:23;17.00;83.20
24678;DHT22;12800;53.094;8.778;2023-07-20T01:36:50;17.10;83.40
24678;DHT22;12800;53.094;8.778;2023-07-20T01:39:18;17.00;83.30
24678;DHT22;12800;53.094;8.778;2023-07-20T01:41:45;17.00;83.50
24678;DHT22;12800;53.094;8.778;2023-07-20T01:44:12;17.00;83.60
24678;DHT22;12800;53.094;8.778;2023-07-20T01:46:37;17.00;83.80
24678;DHT22;12800;53.094;8.778;2023-07-20T01:49:03;17.00;84.00
24678;DHT22;12800;53.094;8.778;2023-07-20T01:51:29;17.00;84.00
24678;DHT22;12800;53.094;8.778;2023-07-20T01:53:54;17.00;84.20
24678;DHT22;12800;53.094;8.778;2023-07-20T01:56:20;17.00;84.10
24678;DHT22;12800;53.094;8.778;2023-07-20T01:58:46;16.90;83.90
24678;DHT22;12800;53.094;8.778;2023-07-20T02:01:11;16.90;83.90
24678;DHT22;12800;53.094;8.778;2023-07-20T02:03:37;16.80;83.80
24678;DHT22;12800;53.094;8.778;2023-07-20T02:06:02;16.70;83.90
24678;DHT22;12800;53.094;8.778;2023-07-20T02:08:28;16.70;84.40
24678;DHT22;12800;53.094;8.778;2023-07-20T02:10:54;16.70;84.80
24678;DHT22;12800;53.094;8.778;2023-07-20T02:13:19;16.60;85.00
24678;DHT22;12800;53.094;8.778;2023-07-20T02:15:45;16.50;85.40
24678;DHT22;12800;53.094;8.778;2023-07-20T02:18:12;16.50;85.90
24678;DHT22;12800;53.094;8.778;2023-07-20T02:20:38;16.50;86.10
24678;DHT22;12800;53.094;8.778;2023-07-20T02:23:05;16.50;86.50
24678;DHT22;12800;53.094;8.778;2023-07-20T02:25:31;16.50;86.40
24678;DHT22;12800;53.094;8.778;2023-07-20T02:27:57;16.50;86.30
24678;DHT22;12800;53.094;8.778;2023-07-20T02:30:23;16.50;85.70
24678;DHT22;12800;53.094;8.778;2023-07-20T02:32:49;16.50;85.10
24678;DHT22;12800;53.094;8.778;2023-07-20T02:35:15;16.50;84.70
24678;DHT22;12800;53.094;8.778;2023-07-20T02:37:41;16.50;84.50
24678;DHT22;12800;53.094;8.778;2023-07-20T02:40:07;16.60;84.60
24678;DHT22;12800;53.094;8.778;2023-07-20T02:42:33;16.60;84.70
24678;DHT22;12800;53.094;8.778;2023-07-20T02:44:59;16.60;85.10
24678;DHT22;12800;53.094;8.778;2023-07-20T02:47:24;16.70;86.20
24678;DHT22;12800;53.094;8.778;2023-07-20T02:49:50;16.70;85.70
24678;DHT22;12800;53.094;8.778;2023-07-20T02:52:16;16.70;85.80
24678;DHT22;12800;53.094;8.778;2023-07-20T02:54:41;16.70;85.80
24678;DHT22;12800;53.094;8.778;2023-07-20T02:57:07;16.70;85.90
24678;DHT22;12800;53.094;8.778;2023-07-20T02:59:33;16.70;86.10
24678;DHT22;12800;53.094;8.778;2023-07-20T03:01:58;16.70;86.20
24678;DHT22;12800;53.094;8.778;2023-07-20T03:04:27;16.80;86.30
24678;DHT22;12800;53.094;8.778;2023-07-20T03:06:53;16.80;86.20
24678;DHT22;12800;53.094;8.778;2023-07-20T03:09:18;16.80;86.20
24678;DHT22;12800;53.094;8.778;2023-07-20T03:11:44;16.80;86.20
24678;DHT22;12800;53.094;8.778;2023-07-20T03:14:10;16.80;86.30
24678;DHT22;12800;53.094;8.778;2023-07-20T03:16:36;16.80;86.20
24678;DHT22;12800;53.094;8.778;2023-07-20T03:19:02;16.80;86.10
24678;DHT22;12800;53.094;8.778;2023-07-20T03:21:28;16.80;86.10
24678;DHT22;12800;53.094;8.778;2023-07-20T03:23:54;16.70;86.00
24678;DHT22;12800;53.094;8.778;2023-07-20T03:26:20;16.70;86.20
24678;DHT22;12800;53.094;8.778;2023-07-20T03:28:46;16.70;86.30
24678;DHT22;12800;53.094;8.778;2023-07-20T03:31:11;16.70;86.30
24678;DHT22;12800;53.094;8.778;2023-07-20T03:33:37;16.60;86.20
24678;DHT22;12800;53.094;8.778;2023-07-20T03:36:03;16.60;86.40
24678;DHT22;12800;53.094;8.778;2023-07-20T03:38:28;16.60;86.70
24678;DHT22;12800;53.094;8.778;2023-07-20T03:40:59;16.60;87.00
24678;DHT22;12800;53.094;8.778;2023-07-20T03:43:26;16.60;86.90
24678;DHT22;12800;53.094;8.778;2023-07-20T03:45:53;16.70;86.90
24678;DHT22;12800;53.094;8.778;2023-07-20T03:48:20;16.60;86.80
24678;DHT22;12800;53.094;8.778;2023-07-20T03:50:47;16.60;86.80
24678;DHT22;12800;53.094;8.778;2023-07-20T03:53:14;16.70;87.00
24678;DHT22;12800;53.094;8.778;2023-07-20T03:55:41;16.70;87.00
24678;DHT22;12800;53.094;8.778;2023-07-20T03:58:07;16.70;86.70
24678;DHT22;12800;53.094;8.778;2023-07-20T04:00:34;16.70;86.70
24678;DHT22;12800;53.094;8.778;2023-07-20T04:03:00;16.70;86.80
24678;DHT22;12800;53.094;8.778;2023-07-20T04:05:26;16.70;87.00
24678;DHT22;12800;53.094;8.778;2023-07-20T04:07:52;16.70;87.00
24678;DHT22;12800;53.094;8.778;2023-07-20T04:10:18;16.70;87.10
24678;DHT22;12800;53.094;8.778;2023-07-20T04:12:47;16.70;87.00
24678;DHT22;12800;53.094;8.778;2023-07-20T04:15:13;16.70;86.80
24678;DHT22;12800;53.094;8.778;2023-07-20T04:17:40;16.70;86.80
24678;DHT22;12800;53.094;8.778;2023-07-20T04:20:07;16.80;87.30
24678;DHT22;12800;53.094;8.778;2023-07-20T04:22:33;16.70;86.60
24678;DHT22;12800;53.094;8.778;2023-07-20T04:24:58;16.70;86.60
24678;DHT22;12800;53.094;8.778;2023-07-20T04:27:24;16.70;86.70
24678;DHT22;12800;53.094;8.778;2023-07-20T04:29:50;16.70;87.30
24678;DHT22;12800;53.094;8.778;2023-07-20T04:32:15;16.70;86.40
24678;DHT22;12800;53.094;8.778;2023-07-20T04:34:41;16.70;86.40
24678;DHT22;12800;53.094;8.778;2023-07-20T04:37:07;16.70;86.60
24678;DHT22;12800;53.094;8.778;2023-07-20T04:39:33;16.70;86.60
24678;DHT22;12800;53.094;8.778;2023-07-20T04:41:58;16.70;86.70
24678;DHT22;12800;53.094;8.778;2023-07-20T04:44:24;16.80;86.70
24678;DHT22;12800;53.094;8.778;2023-07-20T04:46:50;16.80;86.60
24678;DHT22;12800;53.094;8.778;2023-07-20T04:49:15;16.80;86.60
24678;DHT22;12800;53.094;8.778;2023-07-20T04:51:41;16.90;86.60
24678;DHT22;12800;53.094;8.778;2023-07-20T04:54:06;16.90;86.50
24678;DHT22;12800;53.094;8.778;2023-07-20T04:56:32;16.90;86.30
24678;DHT22;12800;53.094;8.778;2023-07-20T04:58:58;17.00;86.20
24678;DHT22;12800;53.094;8.778;2023-07-20T05:01:24;16.90;86.10
24678;DHT22;12800;53.094;8.778;2023-07-20T05:03:52;16.90;86.00
24678;DHT22;12800;53.094;8.778;2023-07-20T05:06:18;16.90;86.10
24678;DHT22;12800;53.094;8.778;2023-07-20T05:08:43;16.90;86.10
24678;DHT22;12800;53.094;8.778;2023-07-20T05:11:09;16.90;85.80
24678;DHT22;12800;53.094;8.778;2023-07-20T05:13:36;16.90;85.90
24678;DHT22;12800;53.094;8.778;2023-07-20T05:16:01;16.80;85.80
24678;DHT22;12800;53.094;8.778;2023-07-20T05:18:27;16.80;85.80
24678;DHT22;12800;53.094;8.778;2023-07-20T05:20:52;16.80;85.60
24678;DHT22;12800;53.094;8.778;2023-07-20T05:23:20;16.80;85.40
24678;DHT22;12800;53.094;8.778;2023-07-20T05:25:46;16.80;86.30
24678;DHT22;12800;53.094;8.778;2023-07-20T05:28:12;16.80;85.20
24678;DHT22;12800;53.094;8.778;2023-07-20T05:30:38;16.70;85.30
24678;DHT22;12800;53.094;8.778;2023-07-20T05:33:05;16.80;85.50
24678;DHT22;12800;53.094;8.778;2023-07-20T05:35:30;16.80;85.30
24678;DHT22;12800;53.094;8.778;2023-07-20T05:37:56;16.80;85.20
24678;DHT22;12800;53.094;8.778;2023-07-20T05:40:21;16.80;85.10
24678;DHT22;12800;53.094;8.778;2023-07-20T05:42:48;16.90;85.20
24678;DHT22;12800;53.094;8.778;2023-07-20T05:45:17;16.90;85.00
24678;DHT22;12800;53.094;8.778;2023-07-20T05:47:43;16.90;84.70
24678;DHT22;12800;53.094;8.778;2023-07-20T05:50:09;16.90;84.50
24678;DHT22;12800;53.094;8.778;2023-07-20T05:52:35;16.90;85.40
24678;DHT22;12800;53.094;8.778;2023-07-20T05:55:00;17.00;84.70
24678;DHT22;12800;53.094;8.778;2023-07-20T05:57:26;17.00;84.30
24678;DHT22;12800;53.094;8.778;2023-07-20T05:59:52;17.00;84.00
24678;DHT22;12800;53.094;8.778;2023-07-20T06:02:17;17.00;83.90
24678;DHT22;12800;53.094;8.778;2023-07-20T06:04:43;17.10;83.90
24678;DHT22;12800;53.094;8.778;2023-07-20T06:07:09;17.10;83.80
24678;DHT22;12800;53.094;8.778;2023-07-20T06:09:34;17.20;84.40
24678;DHT22;12800;53.094;8.778;2023-07-20T06:12:00;17.20;83.00
24678;DHT22;12800;53.094;8.778;2023-07-20T06:14:26;17.20;82.60
24678;DHT22;12800;53.094;8.778;2023-07-20T06:16:51;17.30;82.70
24678;DHT22;12800;53.094;8.778;2023-07-20T06:19:17;17.30;82.70
24678;DHT22;12800;53.094;8.778;2023-07-20T06:21:43;17.30;82.70
24678;DHT22;12800;53.094;8.778;2023-07-20T06:24:09;17.40;82.40
24678;DHT22;12800;53.094;8.778;2023-07-20T06:26:35;17.40;81.80
24678;DHT22;12800;53.094;8.778;2023-07-20T06:29:05;17.40;81.10
24678;DHT22;12800;53.094;8.778;2023-07-20T06:31:35;17.50;81.00
24678;DHT22;12800;53.094;8.778;2023-07-20T06:34:01;17.50;80.90
24678;DHT22;12800;53.094;8.778;2023-07-20T06:36:27;17.50;80.60
24678;DHT22;12800;53.094;8.778;2023-07-20T06:38:54;17.50;80.70
24678;DHT22;12800;53.094;8.778;2023-07-20T06:41:19;17.50;80.60
24678;DHT22;12800;53.094;8.778;2023-07-20T06:43:45;17.60;80.50
24678;DHT22;12800;53.094;8.778;2023-07-20T06:46:11;17.60;80.20
24678;DHT22;12800;53.094;8.778;2023-07-20T06:48:36;17.60;79.90
24678;DHT22;12800;53.094;8.778;2023-07-20T06:51:02;17.70;79.50
24678;DHT22;12800;53.094;8.778;2023-07-20T06:53:29;17.70;78.90
24678;DHT22;12800;53.094;8.778;2023-07-20T06:55:54;17.70;78.50
24678;DHT22;12800;53.094;8.778;2023-07-20T06:58:23;17.70;78.50
24678;DHT22;12800;53.094;8.778;2023-07-20T07:00:49;17.70;78.40
24678;DHT22;12800;53.094;8.778;2023-07-20T07:03:14;17.70;78.30
24678;DHT22;12800;53.094;8.778;2023-07-20T07:05:40;17.70;77.90
24678;DHT22;12800;53.094;8.778;2023-07-20T07:08:06;17.70;77.80
24678;DHT22;12800;53.094;8.778;2023-07-20T07:10:32;17.70;76.50
24678;DHT22;12800;53.094;8.778;2023-07-20T07:12:58;17.70;76.30
24678;DHT22;12800;53.094;8.778;2023-07-20T07:15:24;17.70;75.90
24678;DHT22;12800;53.094;8.778;2023-07-20T07:17:49;17.70;75.90
24678;DHT22;12800;53.094;8.778;2023-07-20T07:20:16;17.80;76.10
24678;DHT22;12800;53.094;8.778;2023-07-20T07:22:41;17.80;75.80
24678;DHT22;12800;53.094;8.778;2023-07-20T07:25:09;17.90;75.60
24678;DHT22;12800;53.094;8.778;2023-07-20T07:27:35;18.00;75.40
24678;DHT22;12800;53.094;8.778;2023-07-20T07:30:01;18.00;75.00
24678;DHT22;12800;53.094;8.778;2023-07-20T07:32:27;18.10;74.50
24678;DHT22;12800;53.094;8.778;2023-07-20T07:34:53;18.10;74.30
24678;DHT22;12800;53.094;8.778;2023-07-20T07:37:18;18.20;74.00
24678;DHT22;12800;53.094;8.778;2023-07-20T07:39:45;18.30;74.20
24678;DHT22;12800;53.094;8.778;2023-07-20T07:42:11;18.30;74.10
24678;DHT22;12800;53.094;8.778;2023-07-20T07:44:37;18.40;73.80
24678;DHT22;12800;53.094;8.778;2023-07-20T07:47:03;18.40;73.30
24678;DHT22;12800;53.094;8.778;2023-07-20T07:49:29;18.40;72.40
24678;DHT22;12800;53.094;8.778;2023-07-20T07:51:54;18.40;72.50
24678;DHT22;12800;53.094;8.778;2023-07-20T07:54:20;18.50;71.60
24678;DHT22;12800;53.094;8.778;2023-07-20T07:56:46;18.50;71.60
24678;DHT22;12800;53.094;8.778;2023-07-20T07:59:11;18.50;71.30
24678;DHT22;12800;53.094;8.778;2023-07-20T08:01:37;18.60;71.20
24678;DHT22;12800;53.094;8.778;2023-07-20T08:04:03;18.70;70.80
24678;DHT22;12800;53.094;8.778;2023-07-20T08:06:29;18.80;70.50
24678;DHT22;12800;53.094;8.778;2023-07-20T08:08:54;18.90;70.10
24678;DHT22;12800;53.094;8.778;2023-07-20T08:11:20;18.90;70.00
24678;DHT22;12800;53.094;8.778;2023-07-20T08:13:46;19.00;69.20
24678;DHT22;12800;53.094;8.778;2023-07-20T08:16:11;19.00;68.40
24678;DHT22;12800;53.094;8.778;2023-07-20T08:18:37;18.90;68.10
24678;DHT22;12800;53.094;8.778;2023-07-20T08:21:03;18.80;67.90
24678;DHT22;12800;53.094;8.778;2023-07-20T08:23:28;18.80;68.10
24678;DHT22;12800;53.094;8.778;2023-07-20T08:25:54;18.80;68.90
24678;DHT22;12800;53.094;8.778;2023-07-20T08:28:20;18.70;68.80
24678;DHT22;12800;53.094;8.778;2023-07-20T08:30:47;18.70;67.90
24678;DHT22;12800;53.094;8.778;2023-07-20T08:33:14;18.70;67.70
24678;DHT22;12800;53.094;8.778;2023-07-20T08:35:40;18.80;67.50
24678;DHT22;12800;53.094;8.778;2023-07-20T08:38:06;18.80;67.10
24678;DHT22;12800;53.094;8.778;2023-07-20T08:40:43;18.80;67.40
24678;DHT22;12800;53.094;8.778;2023-07-20T08:43:13;18.90;67.40
24678;DHT22;12800;53.094;8.778;2023-07-20T08:45:40;19.00;66.80
24678;DHT22;12800;53.094;8.778;2023-07-20T08:48:07;19.00;66.50
24678;DHT22;12800;53.094;8.778;2023-07-20T08:50:34;19.00;66.20
24678;DHT22;12800;53.094;8.778;2023-07-20T08:53:00;19.10;65.60
24678;DHT22;12800;53.094;8.778;2023-07-20T08:55:27;19.00;65.20
24678;DHT22;12800;53.094;8.778;2023-07-20T08:57:54;19.10;65.40
24678;DHT22;12800;53.094;8.778;2023-07-20T09:00:21;19.10;65.80
24678;DHT22;12800;53.094;8.778;2023-07-20T09:02:51;19.20;65.90
24678;DHT22;12800;53.094;8.778;2023-07-20T09:05:18;19.20;65.70
24678;DHT22;12800;53.094;8.778;2023-07-20T09:07:44;19.30;65.40
24678;DHT22;12800;53.094;8.778;2023-07-20T09:10:10;19.30;65.20
24678;DHT22;12800;53.094;8.778;2023-07-20T09:12:38;19.30;64.90
24678;DHT22;12800;53.094;8.778;2023-07-20T09:15:05;19.30;64.80
24678;DHT22;12800;53.094;8.778;2023-07-20T09:17:31;19.40;64.80
24678;DHT22;12800;53.094;8.778;2023-07-20T09:19:57;19.50;64.50
24678;DHT22;12800;53.094;8.778;2023-07-20T09:22:29;19.60;64.00
24678;DHT22;12800;53.094;8.778;2023-07-20T09:24:56;19.60;63.70
24678;DHT22;12800;53.094;8.778;2023-07-20T09:27:29;19.70;63.60
24678;DHT22;12800;53.094;8.778;2023-07-20T09:29:56;19.90;63.20
24678;DHT22;12800;53.094;8.778;2023-07-20T09:32:22;19.90;62.60
24678;DHT22;12800;53.094;8.778;2023-07-20T09:34:50;19.90;62.70
24678;DHT22;12800;53.094;8.778;2023-07-20T09:37:20;20.00;63.10
24678;DHT22;12800;53.094;8.778;2023-07-20T09:39:47;20.00;62.90
24678;DHT22;12800;53.094;8.778;2023-07-20T09:42:13;20.00;62.70
24678;DHT22;12800;53.094;8.778;2023-07-20T09:44:39;20.10;62.40
24678;DHT22;12800;53.094;8.778;2023-07-20T09:47:06;20.10;62.10
24678;DHT22;12800;53.094;8.778;2023-07-20T09:49:32;20.20;62.10
24678;DHT22;12800;53.094;8.778;2023-07-20T09:51:58;20.30;61.90
24678;DHT22;12800;53.094;8.778;2023-07-20T09:54:27;20.30;61.60
24678;DHT22;12800;53.094;8.778;2023-07-20T09:56:54;20.40;61.70
24678;DHT22;12800;53.094;8.778;2023-07-20T09:59:21;20.50;61.10
24678;DHT22;12800;53.094;8.778;2023-07-20T10:01:47;20.60;61.10
24678;DHT22;12800;53.094;8.778;2023-07-20T10:04:16;20.70;61.00
24678;DHT22;12800;53.094;8.778;2023-07-20T10:06:47;20.80;60.70
24678;DHT22;12800;53.094;8.778;2023-07-20T10:09:15;20.80;60.40
24678;DHT22;12800;53.094;8.778;2023-07-20T10:11:45;20.70;60.60
24678;DHT22;12800;53.094;8.778;2023-07-20T10:14:13;20.50;61.30
24678;DHT22;12800;53.094;8.778;2023-07-20T10:16:43;20.30;62.00
24678;DHT22;12800;53.094;8.778;2023-07-20T10:22:14;20.10;63.20
24678;DHT22;12800;53.094;8.778;2023-07-20T10:24:39;20.00;63.90
24678;DHT22;12800;53.094;8.778;2023-07-20T10:27:06;20.00;64.20
24678;DHT22;12800;53.094;8.778;2023-07-20T10:29:32;20.00;64.90
24678;DHT22;12800;53.094;8.778;2023-07-20T10:31:58;20.00;65.40
24678;DHT22;12800;53.094;8.778;2023-07-20T10:34:25;20.00;65.10
24678;DHT22;12800;53.094;8.778;2023-07-20T10:36:50;20.10;64.50
24678;DHT22;12800;53.094;8.778;2023-07-20T10:39:32;20.10;64.10
24678;DHT22;12800;53.094;8.778;2023-07-20T10:42:09;20.10;63.60
24678;DHT22;12800;53.094;8.778;2023-07-20T10:44:37;20.10;63.70
24678;DHT22;12800;53.094;8.778;2023-07-20T10:47:13;20.20;63.80
24678;DHT22;12800;53.094;8.778;2023-07-20T10:49:58;20.30;64.00
24678;DHT22;12800;53.094;8.778;2023-07-20T10:52:23;20.40;64.00
24678;DHT22;12800;53.094;8.778;2023-07-20T10:54:49;20.50;63.50
24678;DHT22;12800;53.094;8.778;2023-07-20T10:57:31;20.60;63.60
24678;DHT22;12800;53.094;8.778;2023-07-20T11:00:13;20.70;62.60
24678;DHT22;12800;53.094;8.778;2023-07-20T11:02:47;20.90;62.30
24678;DHT22;12800;53.094;8.778;2023-07-20T11:05:35;21.00;61.90
24678;DHT22;12800;53.094;8.778;2023-07-20T11:08:03;21.10;61.70
24678;DHT22;12800;53.094;8.778;2023-07-20T11:10:29;21.30;61.40
24678;DHT22;12800;53.094;8.778;2023-07-20T11:18:26;21.40;60.50
24678;DHT22;12800;53.094;8.778;2023-07-20T11:20:53;21.30;60.60
24678;DHT22;12800;53.094;8.778;2023-07-20T11:23:22;21.10;60.80
24678;DHT22;12800;53.094;8.778;2023-07-20T11:25:49;21.10;61.00
24678;DHT22;12800;53.094;8.778;2023-07-20T11:28:15;21.10;61.20
24678;DHT22;12800;53.094;8.778;2023-07-20T11:30:41;21.10;60.00
24678;DHT22;12800;53.094;8.778;2023-07-20T11:33:10;21.20;60.30
24678;DHT22;12800;53.094;8.778;2023-07-20T11:35:42;21.30;60.50
24678;DHT22;12800;53.094;8.778;2023-07-20T11:38:09;21.40;60.20
24678;DHT22;12800;53.094;8.778;2023-07-20T11:40:34;21.50;60.30
24678;DHT22;12800;53.094;8.778;2023-07-20T11:43:00;21.80;59.80
24678;DHT22;12800;53.094;8.778;2023-07-20T11:45:26;22.00;59.80
24678;DHT22;12800;53.094;8.778;2023-07-20T11:47:53;22.20;59.40
24678;DHT22;12800;53.094;8.778;2023-07-20T11:50:18;22.30;59.20
24678;DHT22;12800;53.094;8.778;2023-07-20T11:52:44;22.20;58.00
24678;DHT22;12800;53.094;8.778;2023-07-20T11:55:10;22.10;58.00
24678;DHT22;12800;53.094;8.778;2023-07-20T11:57:36;22.10;58.60
24678;DHT22;12800;53.094;8.778;2023-07-20T12:00:04;22.00;58.80
24678;DHT22;12800;53.094;8.778;2023-07-20T12:02:35;21.90;59.00
24678;DHT22;12800;53.094;8.778;2023-07-20T12:05:02;21.70;60.00
24678;DHT22;12800;53.094;8.778;2023-07-20T12:07:28;21.60;61.70
24678;DHT22;12800;53.094;8.778;2023-07-20T12:10:24;21.40;62.30
24678;DHT22;12800;53.094;8.778;2023-07-20T12:12:51;21.20;63.30
24678;DHT22;12800;53.094;8.778;2023-07-20T12:17:46;21.00;63.50
24678;DHT22;12800;53.094;8.778;2023-07-20T12:20:25;21.00;62.80
24678;DHT22;12800;53.094;8.778;2023-07-20T12:22:51;21.20;63.10
24678;DHT22;12800;53.094;8.778;2023-07-20T12:25:16;21.30;62.10
24678;DHT22;12800;53.094;8.778;2023-07-20T12:27:45;21.30;61.60
24678;DHT22;12800;53.094;8.778;2023-07-20T12:30:12;21.30;61.20
24678;DHT22;12800;53.094;8.778;2023-07-20T12:32:39;21.40;61.10
24678;DHT22;12800;53.094;8.778;2023-07-20T12:35:05;21.40;61.30
24678;DHT22;12800;53.094;8.778;2023-07-20T12:37:31;21.40;60.30
24678;DHT22;12800;53.094;8.778;2023-07-20T12:39:57;21.40;60.20
24678;DHT22;12800;53.094;8.778;2023-07-20T12:42:22;21.40;60.80
24678;DHT22;12800;53.094;8.778;2023-07-20T12:44:49;21.40;59.50
24678;DHT22;12800;53.094;8.778;2023-07-20T12:47:16;21.30;59.70
24678;DHT22;12800;53.094;8.778;2023-07-20T12:49:42;21.20;59.30
24678;DHT22;12800;53.094;8.778;2023-07-20T12:52:10;21.10;59.30
24678;DHT22;12800;53.094;8.778;2023-07-20T12:54:36;21.10;59.00
24678;DHT22;12800;53.094;8.778;2023-07-20T12:57:02;21.10;59.20
24678;DHT22;12800;53.094;8.778;2023-07-20T12:59:29;21.10;59.30
24678;DHT22;12800;53.094;8.778;2023-07-20T13:01:54;21.30;59.30
24678;DHT22;12800;53.094;8.778;2023-07-20T13:04:20;21.50;59.00
24678;DHT22;12800;53.094;8.778;2023-07-20T13:06:46;21.60;59.10
24678;DHT22;12800;53.094;8.778;2023-07-20T13:09:11;21.80;58.30
24678;DHT22;12800;53.094;8.778;2023-07-20T13:11:37;21.90;57.90
24678;DHT22;12800;53.094;8.778;2023-07-20T13:14:02;21.90;57.30
24678;DHT22;12800;53.094;8.778;2023-07-20T13:16:28;21.90;56.40
24678;DHT22;12800;53.094;8.778;2023-07-20T13:18:54;21.80;56.30
24678;DHT22;12800;53.094;8.778;2023-07-20T13:21:19;21.80;55.60
24678;DHT22;12800;53.094;8.778;2023-07-20T13:23:48;21.60;55.90
24678;DHT22;12800;53.094;8.778;2023-07-20T13:26:15;21.70;55.60
24678;DHT22;12800;53.094;8.778;2023-07-20T13:28:41;21.80;55.40
24678;DHT22;12800;53.094;8.778;2023-07-20T13:31:06;21.90;56.00
24678;DHT22;12800;53.094;8.778;2023-07-20T13:33:34;22.10;55.70
24678;DHT22;12800;53.094;8.778;2023-07-20T13:36:00;22.30;55.20
24678;DHT22;12800;53.094;8.778;2023-07-20T13:38:26;22.50;55.20
24678;DHT22;12800;53.094;8.778;2023-07-20T13:40:52;22.70;55.10
24678;DHT22;12800;53.094;8.778;2023-07-20T13:43:17;22.80;54.50
24678;DHT22;12800;53.094;8.778;2023-07-20T13:45:43;22.90;54.20
24678;DHT22;12800;53.094;8.778;2023-07-20T13:48:09;23.00;53.80
24678;DHT22;12800;53.094;8.778;2023-07-20T13:50:34;23.10;54.20
24678;DHT22;12800;53.094;8.778;2023-07-20T13:53:00;23.30;53.80
24678;DHT22;12800;53.094;8.778;2023-07-20T13:55:28;23.40;53.60
24678;DHT22;12800;53.094;8.778;2023-07-20T13:57:54;23.60;53.80
24678;DHT22;12800;53.094;8.778;2023-07-20T14:00:19;23.70;53.50
24678;DHT22;12800;53.094;8.778;2023-07-20T14:02:45;23.90;53.60
24678;DHT22;12800;53.094;8.778;2023-07-20T14:05:10;24.00;53.30
24678;DHT22;12800;53.094;8.778;2023-07-20T14:07:36;24.20;52.70
24678;DHT22;12800;53.094;8.778;2023-07-20T14:10:02;24.20;52.00
24678;DHT22;12800;53.094;8.778;2023-07-20T14:12:28;24.20;51.80
24678;DHT22;12800;53.094;8.778;2023-07-20T14:14:54;24.00;51.80
24678;DHT22;12800;53.094;8.778;2023-07-20T14:17:21;23.90;52.70
24678;DHT22;12800;53.094;8.778;2023-07-20T14:19:47;23.70;52.90
24678;DHT22;12800;53.094;8.778;2023-07-20T14:22:12;23.40;52.90
24678;DHT22;12800;53.094;8.778;2023-07-20T14:24:38;23.20;53.40
24678;DHT22;12800;53.094;8.778;2023-07-20T14:27:04;23.00;54.00
24678;DHT22;12800;53.094;8.778;2023-07-20T14:29:30;22.80;54.60
24678;DHT22;12800;53.094;8.778;2023-07-20T14:31:57;22.70;55.20
24678;DHT22;12800;53.094;8.778;2023-07-20T14:34:23;23.00;55.00
24678;DHT22;12800;53.094;8.778;2023-07-20T14:36:48;23.00;53.60
24678;DHT22;12800;53.094;8.778;2023-07-20T14:39:15;23.00;53.00
24678;DHT22;12800;53.094;8.778;2023-07-20T14:41:41;22.90;52.90
24678;DHT22;12800;53.094;8.778;2023-07-20T14:44:06;22.70;52.80
24678;DHT22;12800;53.094;8.778;2023-07-20T14:46:32;22.60;53.50
24678;DHT22;12800;53.094;8.778;2023-07-20T14:48:57;22.60;54.10
24678;DHT22;12800;53.094;8.778;2023-07-20T14:51:24;22.50;54.50
24678;DHT22;12800;53.094;8.778;2023-07-20T14:53:49;22.50;54.80
24678;DHT22;12800;53.094;8.778;2023-07-20T14:56:15;22.50;55.50
24678;DHT22;12800;53.094;8.778;2023-07-20T14:58:40;22.50;55.10
24678;DHT22;12800;53.094;8.778;2023-07-20T15:01:06;22.40;55.00
24678;DHT22;12800;53.094;8.778;2023-07-20T15:03:32;22.40;55.50
24678;DHT22;12800;53.094;8.778;2023-07-20T15:05:57;22.40;55.70
24678;DHT22;12800;53.094;8.778;2023-07-20T15:08:23;22.30;56.00
24678;DHT22;12800;53.094;8.778;2023-07-20T15:10:49;22.20;56.10
24678;DHT22;12800;53.094;8.778;2023-07-20T15:13:15;22.10;56.50
24678;DHT22;12800;53.094;8.778;2023-07-20T15:15:40;22.20;57.00
24678;DHT22;12800;53.094;8.778;2023-07-20T15:18:07;22.30;56.60
24678;DHT22;12800;53.094;8.778;2023-07-20T15:20:32;22.20;56.70
24678;DHT22;12800;53.094;8.778;2023-07-20T15:22:58;22.10;56.70
24678;DHT22;12800;53.094;8.778;2023-07-20T15:25:24;22.10;57.00
24678;DHT22;12800;53.094;8.778;2023-07-20T15:27:50;22.00;57.00
24678;DHT22;12800;53.094;8.778;2023-07-20T15:30:16;21.80;57.40
24678;DHT22;12800;53.094;8.778;2023-07-20T15:32:42;21.80;57.80
24678;DHT22;12800;53.094;8.778;2023-07-20T15:35:09;21.70;57.40
24678;DHT22;12800;53.094;8.778;2023-07-20T15:37:36;21.60;57.50
24678;DHT22;12800;53.094;8.778;2023-07-20T15:40:02;21.50;58.00
24678;DHT22;12800;53.094;8.778;2023-07-20T15:42:32;21.50;58.20
24678;DHT22;12800;53.094;8.778;2023-07-20T15:44:58;21.40;58.30
24678;DHT22;12800;53.094;8.778;2023-07-20T15:47:23;21.40;58.40